EST,Max TemperatureF,Mean TemperatureF,Min TemperatureF,Max Dew PointF,MeanDew PointF,Min DewpointF,Max Humidity, Mean Humidity, Min Humidity, Max Sea Level PressureIn, Mean Sea Level PressureIn, Min Sea Level PressureIn, Max VisibilityMiles, Mean VisibilityMiles, Min VisibilityMiles, Max Wind SpeedMPH, Mean Wind SpeedMPH, Max Gust SpeedMPH,PrecipitationIn, CloudCover, Events, WindDirDegrees
2012-2-1,56,48,39,46,36,28,86,65,43,30.07,29.90,29.78,10,9,2,28,13,36,0.17,8,Rain,286
2012-2-2,39,32,24,29,23,16,75,68,61,30.38,30.18,30.05,10,10,9,14,8,17,0.00,7,,344
2012-2-3,37,30,22,30,25,16,88,74,59,30.48,30.41,30.32,10,10,9,15,6,17,T,7,Rain-Snow,287
2012-2-4,39,30,21,30,26,17,84,66,48,30.32,30.27,30.19,10,9,6,13,6,16,0.01,6,Snow,324
2012-2-5,37,29,20,23,18,14,84,62,40,30.24,30.18,30.12,10,10,9,10,4,15,T,4,Snow,272
2012-2-6,53,42,31,27,23,20,72,50,28,30.12,29.99,29.90,10,10,10,22,11,29,0.00,2,,277
2012-2-7,41,32,22,30,25,16,75,66,56,30.32,30.12,29.97,10,10,9,15,7,18,T,7,Rain-Snow,325
2012-2-8,34,26,18,20,17,12,84,66,47,30.31,30.22,30.11,10,10,10,14,5,16,0.00,6,,274
2012-2-9,44,34,24,21,18,16,75,55,34,30.14,30.10,30.06,10,10,10,16,8,20,0.00,3,,278
2012-2-10,38,29,20,27,20,16,85,65,44,30.10,29.99,29.90,10,8,1,16,4,26,0.01,6,Snow,272
2012-2-11,30,22,13,27,18,1,92,75,58,29.94,29.82,29.75,10,4,1,20,6,25,0.01,7,Snow,346
2012-2-12,25,19,13,19,10,0,84,70,55,29.93,29.89,29.85,10,4,1,23,7,29,0.08,8,Snow,316
2012-2-13,38,32,25,22,18,9,81,60,39,29.99,29.93,29.88,10,10,8,26,17,33,T,5,Snow,282
2012-2-14,40,35,29,30,21,12,89,63,37,30.02,30.00,29.95,10,9,4,12,5,14,T,8,Fog-Snow,191
2012-2-15,40,34,27,34,30,23,89,74,59,30.27,30.17,30.01,10,8,4,17,5,21,T,7,Rain-Snow,274
2012-2-16,42,34,26,37,32,22,85,80,75,30.25,30.05,29.89,10,9,6,13,6,16,0.28,7,Rain,160
2012-2-17,45,38,31,37,30,22,89,66,43,30.04,29.98,29.91,10,8,1,22,12,29,0.04,7,Snow,291
2012-2-18,42,33,24,31,28,20,92,76,59,30.11,29.96,29.83,10,7,0,25,8,35,0.08,7,Fog-Rain-Snow,292
2012-2-19,34,30,26,30,25,21,92,81,69,30.14,30.11,30.08,10,7,1,13,5,16,0.02,7,Snow,334
2012-2-20,36,29,21,21,16,10,81,62,43,30.35,30.26,30.11,10,10,9,13,6,20,T,2,Snow,352
2012-2-21,43,31,19,32,20,14,77,55,33,30.35,30.00,29.69,10,10,10,28,10,35,T,7,Rain-Snow,169
2012-2-22,52,45,37,38,34,28,92,69,46,29.67,29.53,29.40,10,9,6,26,10,35,0.06,7,Rain,306
2012-2-23,46,38,29,34,30,26,96,73,49,29.75,29.53,29.41,10,7,1,21,7,26,0.11,8,Snow,293
2012-2-24,42,36,30,37,30,24,92,84,75,29.71,29.44,29.26,10,8,2,39,12,49,0.15,8,Rain-Snow,126
2012-2-25,37,33,28,28,25,12,92,75,58,30.12,29.57,29.31,10,4,0,37,23,48,0.15,8,Fog-Snow,297
2012-2-26,32,24,16,15,12,9,67,55,43,30.44,30.37,30.17,10,10,9,17,7,22,T,4,Snow,317
2012-2-27,50,37,23,27,21,15,69,53,36,30.32,30.15,29.98,10,10,9,39,11,49,T,7,Snow,118
2012-2-28,36,33,30,27,21,17,75,61,47,30.47,30.38,30.23,10,9,4,23,11,36,T,7,Snow,316
2012-2-29,34,32,30,34,27,19,100,81,61,30.35,30.02,29.67,10,6,1,21,12,25,0.13,8,Rain-Snow,91